createdAt,value
2023-04-21T00:02:03.557Z,9.20
2023-04-21T00:04:33.307Z,9.20
2023-04-21T00:07:04.670Z,9.10
2023-04-21T00:09:31.739Z,9.10
2023-04-21T00:12:01.657Z,9.10
2023-04-21T00:14:29.929Z,9.10
2023-04-21T00:16:56.957Z,9.10
2023-04-21T00:19:24.303Z,9.10
2023-04-21T00:21:51.355Z,9.10
2023-04-21T00:24:18.453Z,9.10
2023-04-21T00:26:45.454Z,9.10
2023-04-21T00:29:12.490Z,9.10
2023-04-21T00:31:39.577Z,9.10
2023-04-21T00:34:06.580Z,9.10
2023-04-21T00:36:36.607Z,9.10
2023-04-21T00:39:04.076Z,9.10
2023-04-21T00:41:32.796Z,9.00
2023-04-21T00:44:07.992Z,9.00
2023-04-21T00:46:36.493Z,9.00
2023-04-21T00:49:08.211Z,8.90
2023-04-21T00:51:37.231Z,8.90
2023-04-21T00:54:09.372Z,8.90
2023-04-21T00:56:36.837Z,8.80
2023-04-21T00:59:04.302Z,8.80
2023-04-21T01:01:34.528Z,8.80
2023-04-21T01:04:02.758Z,8.80
2023-04-21T01:06:34.404Z,8.80
2023-04-21T01:09:02.132Z,8.80
2023-04-21T01:11:32.325Z,8.80
2023-04-21T01:14:00.470Z,8.80
2023-04-21T01:16:30.073Z,8.80
2023-04-21T01:18:58.483Z,8.80
2023-04-21T01:21:27.173Z,8.80
2023-04-21T01:23:54.603Z,8.80
2023-04-21T01:26:23.021Z,8.80
2023-04-21T01:28:50.344Z,8.80
2023-04-21T01:31:18.337Z,8.80
2023-04-21T01:33:45.894Z,8.80
2023-04-21T01:36:13.001Z,8.80
2023-04-21T01:38:42.102Z,8.90
2023-04-21T01:41:10.034Z,8.90
2023-04-21T01:43:37.527Z,8.90
2023-04-21T01:46:08.004Z,8.90
2023-04-21T01:48:37.318Z,9.00
2023-04-21T01:51:06.456Z,9.00
2023-04-21T01:53:33.473Z,9.00
2023-04-21T01:56:02.121Z,9.00
2023-04-21T01:58:33.748Z,9.00
2023-04-21T02:01:05.913Z,9.00
2023-04-21T02:03:32.991Z,9.00
2023-04-21T02:06:00.078Z,9.00
2023-04-21T02:08:27.193Z,9.10
2023-04-21T02:10:54.511Z,9.10
2023-04-21T02:13:21.576Z,9.10
2023-04-21T02:15:48.917Z,9.10
2023-04-21T02:18:16.932Z,9.10
2023-04-21T02:20:44.641Z,9.00
2023-04-21T02:23:13.678Z,9.00
2023-04-21T02:25:40.712Z,9.00
2023-04-21T02:28:07.812Z,9.00
2023-04-21T02:30:35.645Z,9.00
2023-04-21T02:33:02.881Z,9.00
2023-04-21T02:35:30.002Z,9.00
2023-04-21T02:37:57.760Z,9.00
2023-04-21T02:40:24.804Z,8.90
2023-04-21T02:42:52.714Z,8.90
2023-04-21T02:45:19.720Z,8.90
2023-04-21T02:47:46.711Z,8.90
2023-04-21T02:50:16.567Z,8.90
2023-04-21T02:52:43.607Z,8.90
2023-04-21T02:55:11.152Z,8.80
2023-04-21T02:57:38.135Z,8.80
2023-04-21T03:00:07.837Z,8.80
2023-04-21T03:02:35.149Z,8.80
2023-04-21T03:05:02.585Z,8.90
2023-04-21T03:07:30.925Z,8.90
2023-04-21T03:09:57.976Z,8.90
2023-04-21T03:12:25.026Z,8.90
2023-04-21T03:14:52.077Z,8.90
2023-04-21T03:17:19.106Z,8.90
2023-04-21T03:19:47.459Z,8.90
2023-04-21T03:22:14.672Z,8.90
2023-04-21T03:24:41.793Z,8.90
2023-04-21T03:27:10.803Z,8.90
2023-04-21T03:29:38.188Z,8.90
2023-04-21T03:32:05.322Z,8.90
2023-04-21T03:34:32.336Z,8.90
2023-04-21T03:37:03.090Z,8.90
2023-04-21T03:39:30.193Z,8.90
2023-04-21T03:41:57.916Z,8.90
2023-04-21T03:44:27.299Z,8.90
2023-04-21T03:46:55.426Z,8.90
2023-04-21T03:49:24.238Z,8.90
2023-04-21T03:51:51.265Z,8.90
2023-04-21T03:54:18.366Z,8.90
2023-04-21T03:56:45.509Z,8.90
2023-04-21T03:59:12.480Z,8.90
2023-04-21T04:01:39.458Z,8.90
2023-04-21T04:04:06.715Z,8.90
2023-04-21T04:06:35.544Z,8.90
2023-04-21T04:09:04.700Z,9.00
2023-04-21T04:11:32.364Z,9.00
2023-04-21T04:14:00.382Z,8.90
2023-04-21T04:16:29.202Z,8.90
2023-04-21T04:18:56.547Z,9.00
2023-04-21T04:21:30.674Z,8.90
2023-04-21T04:24:19.671Z,9.00
2023-04-21T04:52:58.071Z,9.00
2023-04-21T04:55:26.164Z,9.00
2023-04-21T04:57:53.261Z,9.00
2023-04-21T05:00:20.792Z,9.10
2023-04-21T05:06:35.682Z,9.10
2023-04-21T05:09:04.896Z,9.10
2023-04-21T05:11:34.888Z,9.10
2023-04-21T05:18:42.117Z,9.20
2023-04-21T05:28:58.303Z,9.20
2023-04-21T05:31:53.772Z,9.20
2023-04-21T05:34:59.760Z,9.20
2023-04-21T05:37:46.752Z,9.30
2023-04-21T05:44:30.605Z,9.30
2023-04-21T05:46:57.747Z,9.30
2023-04-21T05:49:24.830Z,9.30
2023-04-21T05:52:41.551Z,9.30
2023-04-21T05:55:26.947Z,9.40
2023-04-21T05:57:55.377Z,9.40
2023-04-21T06:00:22.521Z,9.40
2023-04-21T06:02:49.715Z,9.50
2023-04-21T06:05:17.141Z,9.50
2023-04-21T06:07:44.785Z,9.50
2023-04-21T06:10:13.577Z,9.60
2023-04-21T06:12:40.856Z,9.70
2023-04-21T06:15:08.475Z,9.70
2023-04-21T06:17:35.864Z,9.70
2023-04-21T06:20:04.362Z,9.70
2023-04-21T06:22:33.129Z,9.80
2023-04-21T06:25:02.699Z,9.80
2023-04-21T06:27:29.756Z,9.80
2023-04-21T06:29:57.242Z,9.80
2023-04-21T06:32:24.419Z,9.80
2023-04-21T06:34:51.401Z,9.90
2023-04-21T06:37:18.529Z,9.90
2023-04-21T06:39:45.455Z,10.00
2023-04-21T06:42:12.584Z,10.10
2023-04-21T06:44:45.557Z,10.10
2023-04-21T06:47:12.805Z,10.30
2023-04-21T06:49:40.236Z,10.40
2023-04-21T06:52:07.390Z,10.50
2023-04-21T06:54:34.466Z,10.50
2023-04-21T06:57:02.252Z,10.50
2023-04-21T06:59:29.398Z,10.60
2023-04-21T07:01:56.496Z,10.60
2023-04-21T07:04:24.135Z,10.70
2023-04-21T07:06:51.226Z,10.60
2023-04-21T07:09:18.756Z,10.60
2023-04-21T07:11:46.034Z,10.60
2023-04-21T07:14:15.221Z,10.60
2023-04-21T07:16:42.323Z,10.60
2023-04-21T07:19:09.603Z,10.60
2023-04-21T07:21:36.720Z,10.60
2023-04-21T07:24:04.548Z,10.70
2023-04-21T07:26:31.929Z,10.70
2023-04-21T07:29:02.115Z,10.70
2023-04-21T07:31:29.213Z,10.80
2023-04-21T07:33:56.693Z,10.80
2023-04-21T07:36:31.458Z,10.80
2023-04-21T07:38:58.895Z,10.80
2023-04-21T07:41:26.519Z,10.90
2023-04-21T07:43:53.960Z,11.00
2023-04-21T07:46:23.141Z,11.00
2023-04-21T07:48:50.306Z,11.10
2023-04-21T07:51:18.104Z,11.20
2023-04-21T07:53:45.302Z,11.20
2023-04-21T07:56:15.045Z,11.30
2023-04-21T07:58:42.486Z,11.40
2023-04-21T08:01:09.757Z,11.50
2023-04-21T08:03:37.043Z,11.60
2023-04-21T08:06:05.029Z,11.70
2023-04-21T08:08:32.467Z,11.70
2023-04-21T08:10:59.520Z,11.80
2023-04-21T08:13:26.691Z,11.80
2023-04-21T08:15:54.164Z,11.80
2023-04-21T08:18:22.796Z,11.90
2023-04-21T08:20:50.205Z,11.90
2023-04-21T08:23:17.435Z,12.00
2023-04-21T08:25:44.981Z,12.10
2023-04-21T08:28:11.984Z,12.20
2023-04-21T08:30:39.270Z,12.20
2023-04-21T08:33:13.837Z,12.30
2023-04-21T08:35:54.952Z,12.40
2023-04-21T08:38:32.227Z,12.40
2023-04-21T08:41:04.411Z,12.40
2023-04-21T08:43:31.621Z,12.50
2023-04-21T08:46:00.610Z,12.50
2023-04-21T08:48:29.831Z,12.60
2023-04-21T08:50:58.148Z,12.70
2023-04-21T08:53:25.378Z,12.80
2023-04-21T08:56:07.336Z,12.90
2023-04-21T08:58:38.104Z,13.00
2023-04-21T09:01:05.434Z,13.00
2023-04-21T09:03:32.815Z,13.10
2023-04-21T09:06:07.971Z,13.20
2023-04-21T09:08:39.931Z,13.20
2023-04-21T09:11:07.018Z,13.30
2023-04-21T09:13:36.542Z,13.40
2023-04-21T09:16:08.821Z,13.50
2023-04-21T09:18:37.713Z,13.50
2023-04-21T09:21:11.897Z,13.40
2023-04-21T09:23:47.732Z,13.30
2023-04-21T09:26:18.947Z,13.30
2023-04-21T09:28:47.932Z,13.30
2023-04-21T09:31:28.509Z,13.30
2023-04-21T09:34:00.425Z,13.30
2023-04-21T09:36:30.815Z,13.40
2023-04-21T09:41:33.707Z,13.40
2023-04-21T09:44:05.189Z,13.40
2023-04-21T09:46:36.770Z,13.50
2023-04-21T09:49:04.787Z,13.40
2023-04-21T09:52:05.338Z,13.40
2023-04-21T09:54:29.503Z,13.50
2023-04-21T09:57:01.800Z,13.60
2023-04-21T09:59:45.090Z,13.70
2023-04-21T10:02:13.290Z,14.00
2023-04-21T10:04:44.005Z,14.10
2023-04-21T10:07:12.306Z,14.10
2023-04-21T10:09:45.431Z,14.00
2023-04-21T10:12:17.053Z,14.10
2023-04-21T10:14:44.062Z,14.10
2023-04-21T10:17:11.812Z,14.20
2023-04-21T10:19:49.393Z,14.30
2023-04-21T10:22:30.983Z,14.40
2023-04-21T10:25:00.864Z,14.50
2023-04-21T10:27:41.215Z,14.70
2023-04-21T10:30:22.675Z,15.20
2023-04-21T10:33:02.052Z,15.40
2023-04-21T10:35:59.967Z,15.40
2023-04-21T10:38:44.256Z,15.70
2023-04-21T10:41:28.576Z,15.70
2023-04-21T10:44:01.718Z,15.70
2023-04-21T10:46:37.029Z,15.70
2023-04-21T10:49:12.105Z,15.80
2023-04-21T10:51:58.950Z,15.80
2023-04-21T10:54:27.557Z,15.70
2023-04-21T10:56:59.465Z,15.50
2023-04-21T10:59:29.584Z,15.40
2023-04-21T11:01:57.133Z,15.40
2023-04-21T11:04:24.886Z,15.50
2023-04-21T11:07:11.018Z,15.50
2023-04-21T11:09:39.426Z,15.30
2023-04-21T11:12:11.207Z,15.10
2023-04-21T11:14:40.676Z,14.90
2023-04-21T11:17:16.126Z,14.80
2023-04-21T11:19:46.930Z,14.80
2023-04-21T11:22:14.196Z,15.00
2023-04-21T11:25:23.590Z,15.10
2023-04-21T11:28:24.675Z,15.40
2023-04-21T11:30:59.354Z,15.70
2023-04-21T11:33:46.362Z,16.00
2023-04-21T11:36:13.693Z,16.20
2023-04-21T11:38:43.775Z,16.60
2023-04-21T11:41:15.710Z,16.70
2023-04-21T11:43:48.918Z,16.50
2023-04-21T11:46:24.547Z,16.50
2023-04-21T11:49:08.772Z,16.70
2023-04-21T11:51:44.479Z,16.70
2023-04-21T11:54:17.070Z,16.50
2023-04-21T11:59:55.143Z,16.90
2023-04-21T12:02:28.398Z,16.90
2023-04-21T12:05:07.041Z,16.70
2023-04-21T12:07:36.636Z,16.60
2023-04-21T12:13:10.782Z,16.50
2023-04-21T12:15:38.115Z,16.40
2023-04-21T12:18:50.882Z,16.50
2023-04-21T12:21:18.712Z,16.60
2023-04-21T12:28:16.565Z,16.30
2023-04-21T12:30:46.719Z,16.10
2023-04-21T12:34:32.296Z,16.10
2023-04-21T12:39:54.060Z,16.30
2023-04-21T12:42:51.881Z,16.50
2023-04-21T12:46:25.921Z,16.50
2023-04-21T12:53:12.895Z,16.30
2023-04-21T12:56:12.193Z,16.20
2023-04-21T12:58:52.857Z,16.20
2023-04-21T13:01:22.244Z,16.30
2023-04-21T13:03:49.618Z,16.30
2023-04-21T13:06:30.821Z,16.40
2023-04-21T13:08:57.893Z,16.50
2023-04-21T13:11:25.294Z,16.50
2023-04-21T13:13:52.372Z,16.50
2023-04-21T13:16:27.285Z,16.50
2023-04-21T13:18:56.847Z,16.60
2023-04-21T13:21:26.632Z,16.70
2023-04-21T13:23:59.496Z,16.90
2023-04-21T13:26:31.574Z,17.10
2023-04-21T13:32:19.226Z,17.40
2023-04-21T13:34:49.723Z,17.60
2023-04-21T13:37:17.176Z,17.80
2023-04-21T13:39:44.393Z,17.90
2023-04-21T13:42:11.770Z,18.00
2023-04-21T13:44:42.289Z,18.10
2023-04-21T13:47:09.810Z,18.30
2023-04-21T13:55:43.990Z,18.50
2023-04-21T14:15:27.041Z,19.00
2023-04-21T14:18:00.732Z,19.20
2023-04-21T14:20:32.337Z,19.10
2023-04-21T14:22:59.696Z,19.00
2023-04-21T14:25:38.961Z,18.80
2023-04-21T14:28:17.454Z,18.60
2023-04-21T14:37:34.356Z,18.60
2023-04-21T14:41:00.044Z,18.40
2023-04-21T14:57:19.677Z,18.50
2023-04-21T15:03:05.323Z,19.00
2023-04-21T15:05:37.660Z,19.50
2023-04-21T15:08:11.804Z,20.40
2023-04-21T15:10:47.782Z,21.60
2023-04-21T15:13:15.357Z,22.50
2023-04-21T15:15:44.949Z,22.70
2023-04-21T15:18:21.219Z,22.80
2023-04-21T15:20:52.312Z,23.20
2023-04-21T15:28:16.905Z,24.60
2023-04-21T15:30:52.888Z,24.70
2023-04-21T15:33:41.032Z,24.40
2023-04-21T15:36:15.493Z,24.20
2023-04-21T15:39:52.675Z,24.40
2023-04-21T15:57:17.718Z,25.10
2023-04-21T15:58:33.651Z,24.80
2023-04-21T16:01:00.982Z,23.90
2023-04-21T16:03:29.080Z,24.40
2023-04-21T16:06:01.206Z,25.20
2023-04-21T16:08:30.803Z,26.00
2023-04-21T16:18:52.780Z,27.10
2023-04-21T16:21:26.358Z,27.40
2023-04-21T16:24:08.317Z,27.70
2023-04-21T16:26:36.885Z,27.90
2023-04-21T16:29:04.068Z,28.00
2023-04-21T16:31:31.735Z,28.10
2023-04-21T16:46:48.155Z,28.20
2023-04-21T16:49:16.726Z,27.20
2023-04-21T16:51:45.586Z,26.10
2023-04-21T16:54:46.024Z,24.90
2023-04-21T16:57:24.110Z,23.80
2023-04-21T17:00:10.960Z,23.50
2023-04-21T17:02:45.928Z,23.70
2023-04-21T17:05:15.648Z,23.20
2023-04-21T17:07:46.084Z,22.50
2023-04-21T17:10:15.635Z,22.10
2023-04-21T17:12:46.677Z,21.70
2023-04-21T17:15:18.480Z,21.30
2023-04-21T17:17:49.703Z,20.90
2023-04-21T17:20:19.365Z,20.30
2023-04-21T17:26:02.472Z,19.50
2023-04-21T17:28:30.234Z,19.20
2023-04-21T17:31:13.665Z,19.10
2023-04-21T17:34:00.247Z,18.90
2023-04-21T17:36:31.133Z,18.70
2023-04-21T17:38:59.361Z,18.30
2023-04-21T17:41:33.140Z,17.90
2023-04-21T17:47:31.050Z,17.40
2023-04-21T17:49:58.889Z,17.10
2023-04-21T17:52:26.876Z,16.60
2023-04-21T17:54:54.859Z,15.90
2023-04-21T17:57:21.949Z,14.90
2023-04-21T17:59:49.171Z,13.80
2023-04-21T18:02:16.480Z,13.20
2023-04-21T18:04:44.523Z,12.90
2023-04-21T18:07:20.700Z,12.80
2023-04-21T18:14:00.841Z,12.60
2023-04-21T18:16:34.814Z,12.40
2023-04-21T18:19:11.452Z,12.40
2023-04-21T18:21:38.510Z,12.30
2023-04-21T18:24:08.152Z,12.40
2023-04-21T18:26:41.498Z,12.30
2023-04-21T18:29:19.920Z,12.20
2023-04-21T18:32:31.000Z,12.10
2023-04-21T18:34:58.425Z,12.10
2023-04-21T18:37:25.867Z,11.90
2023-04-21T18:39:53.186Z,11.90
2023-04-21T18:42:20.612Z,12.00
2023-04-21T18:44:50.061Z,12.00
2023-04-21T18:47:35.157Z,11.90
2023-04-21T18:50:03.047Z,11.90
2023-04-21T18:52:42.461Z,11.80
2023-04-21T18:55:13.197Z,11.70
2023-04-21T18:57:44.260Z,11.70
2023-04-21T19:00:12.021Z,11.70
2023-04-21T19:03:05.580Z,11.70
2023-04-21T19:05:40.634Z,11.70
2023-04-21T19:08:10.245Z,11.70
2023-04-21T19:10:40.712Z,11.60
2023-04-21T19:13:08.029Z,11.60
2023-04-21T19:15:35.466Z,11.70
2023-04-21T19:18:02.995Z,11.70
2023-04-21T19:20:30.718Z,11.70
2023-04-21T19:23:59.061Z,11.70
2023-04-21T19:26:34.574Z,11.70
2023-04-21T19:29:15.679Z,11.60
2023-04-21T19:31:49.266Z,11.60
2023-04-21T19:34:17.261Z,11.50
2023-04-21T19:36:47.780Z,11.40
2023-04-21T19:40:04.585Z,11.40
2023-04-21T19:42:59.108Z,11.50
2023-04-21T19:54:10.692Z,11.50
2023-04-21T19:56:44.681Z,11.40
2023-04-21T19:59:23.789Z,11.40
2023-04-21T20:01:58.041Z,11.40
2023-04-21T20:04:25.602Z,11.40
2023-04-21T20:06:53.335Z,11.40
2023-04-21T20:09:20.798Z,11.30
2023-04-21T20:11:51.033Z,11.30
2023-04-21T20:14:20.460Z,11.30
2023-04-21T20:17:02.349Z,11.20
2023-04-21T20:19:32.005Z,11.20
2023-04-21T20:21:59.335Z,11.20
2023-04-21T20:24:26.950Z,11.20
2023-04-21T20:27:31.728Z,11.20
2023-04-21T20:30:02.105Z,11.30
2023-04-21T20:32:29.688Z,11.20
2023-04-21T20:35:00.374Z,11.30
2023-04-21T20:37:36.647Z,11.30
2023-04-21T20:40:08.380Z,11.30
2023-04-21T20:42:54.717Z,11.40
2023-04-21T20:45:22.506Z,11.40
2023-04-21T20:47:50.471Z,11.40
2023-04-21T20:50:43.322Z,11.40
2023-04-21T20:53:18.783Z,11.40
2023-04-21T20:56:07.276Z,11.40
2023-04-21T20:58:43.486Z,11.30
2023-04-21T21:01:11.153Z,11.40
2023-04-21T21:03:38.403Z,11.30
2023-04-21T21:06:13.681Z,11.40
2023-04-21T21:08:42.133Z,11.40
2023-04-21T21:11:15.367Z,11.40
2023-04-21T21:13:42.721Z,11.40
2023-04-21T21:16:14.553Z,11.40
2023-04-21T21:18:42.454Z,11.40
2023-04-21T21:21:21.612Z,11.50
2023-04-21T21:24:13.384Z,11.40
2023-04-21T21:26:55.403Z,11.30
2023-04-21T21:29:36.468Z,11.30
2023-04-21T21:32:41.349Z,11.20
2023-04-21T21:35:44.824Z,11.30
2023-04-21T21:42:25.608Z,11.40
2023-04-21T21:45:00.145Z,11.40
2023-04-21T21:47:27.860Z,11.40
2023-04-21T21:50:04.665Z,11.40
2023-04-21T21:56:28.985Z,11.40
2023-04-21T21:58:56.347Z,11.40
2023-04-21T22:02:01.707Z,11.40
2023-04-21T22:04:36.319Z,11.30
2023-04-21T22:10:21.850Z,11.30
2023-04-21T22:13:12.135Z,11.20
2023-04-21T22:15:41.127Z,11.30
2023-04-21T22:18:48.333Z,11.20
2023-04-21T22:21:18.686Z,11.20
2023-04-21T22:23:56.557Z,11.20
2023-04-21T22:26:26.036Z,11.10
2023-04-21T22:28:54.785Z,11.10
2023-04-21T22:31:33.365Z,11.10
2023-04-21T22:34:00.480Z,11.00
2023-04-21T22:36:27.627Z,10.90
2023-04-21T22:38:59.564Z,10.80
2023-04-21T22:46:08.489Z,10.70
2023-04-21T22:48:28.420Z,10.60
2023-04-21T22:50:55.933Z,10.50
2023-04-21T22:53:26.596Z,10.40
2023-04-21T22:56:10.600Z,10.40
2023-04-21T22:58:41.753Z,10.40
2023-04-21T23:01:17.305Z,10.30
2023-04-21T23:03:44.843Z,10.30
2023-04-21T23:06:17.414Z,10.30
2023-04-21T23:08:44.641Z,10.30
2023-04-21T23:11:14.202Z,10.30
2023-04-21T23:13:46.905Z,10.30
2023-04-21T23:16:14.179Z,10.30
2023-04-21T23:18:44.803Z,10.40
2023-04-21T23:21:16.344Z,10.40
2023-04-21T23:23:48.834Z,10.40
2023-04-21T23:26:16.200Z,10.40
2023-04-21T23:28:46.362Z,10.40
2023-04-21T23:31:17.257Z,10.40
2023-04-21T23:33:44.629Z,10.40
2023-04-21T23:36:14.411Z,10.40
2023-04-21T23:38:44.107Z,10.40
2023-04-21T23:41:11.415Z,10.30
2023-04-21T23:43:38.789Z,10.20
2023-04-21T23:46:06.206Z,10.20
2023-04-21T23:48:36.450Z,10.20
2023-04-21T23:51:03.837Z,10.10
2023-04-21T23:53:31.312Z,10.00
2023-04-21T23:56:03.488Z,10.00
2023-04-21T23:58:30.548Z,9.90
